Time;durP1;ratioP1;P1;durP2;ratioP2;P2;SDS_P1;SDS_P2;PMS_P1;PMS_P2;Temp;Humidity;BMP_temperature;BMP_pressure;BME280_temperature;BME280_humidity;BME280_pressure;Samples;Min_cycle;Max_cycle;Signal;HPM_P1;HPM_P2
2022/06/25 00:00:38;;;;;;;9.63;3.20;;;;;;;16.05;67.58;100008.29;1425540;91;23414;-79
2022/06/25 00:03:04;;;;;;;9.67;2.60;;;;;;;16.04;67.50;100007.47;1425117;91;21435;-79
2022/06/25 00:05:32;;;;;;;8.07;3.00;;;;;;;16.01;68.49;100009.19;1423054;91;22447;-79
2022/06/25 00:08:00;;;;;;;6.60;2.63;;;;;;;15.98;67.81;100009.06;1421008;91;21368;-79
2022/06/25 00:10:26;;;;;;;8.70;3.43;;;;;;;15.98;68.72;100013.58;1427151;91;21525;-80
2022/06/25 00:12:52;;;;;;;5.70;2.47;;;;;;;15.93;69.03;100009.33;1433591;91;21420;-79
2022/06/25 00:15:18;;;;;;;6.10;2.40;;;;;;;15.93;69.00;100014.66;1432891;91;21480;-79
2022/06/25 00:17:44;;;;;;;7.47;3.37;;;;;;;15.96;68.68;100011.61;1420801;91;21368;-79
2022/06/25 00:20:12;;;;;;;6.93;2.53;;;;;;;15.99;68.16;100013.89;1399893;91;21442;-79
2022/06/25 00:22:38;;;;;;;15.43;3.00;;;;;;;15.96;67.49;100011.09;1439848;91;21397;-79
2022/06/25 00:25:05;;;;;;;5.60;2.77;;;;;;;15.89;67.55;100004.07;1423834;91;21317;-79
2022/06/25 00:27:31;;;;;;;9.20;3.33;;;;;;;15.84;67.48;100001.97;1427107;91;21369;-79
2022/06/25 00:29:57;;;;;;;10.97;3.20;;;;;;;15.83;67.57;100006.17;1428797;91;22204;-79
2022/06/25 00:32:23;;;;;;;11.93;3.03;;;;;;;15.76;68.15;100002.91;1433752;91;21430;-79
2022/06/25 00:34:49;;;;;;;5.13;3.43;;;;;;;15.72;68.08;100007.51;1424863;91;22225;-79
2022/06/25 00:37:15;;;;;;;7.53;3.30;;;;;;;15.65;68.50;99999.91;1420889;91;22389;-79
2022/06/25 00:39:43;;;;;;;11.07;3.07;;;;;;;15.60;68.60;99997.83;1422153;91;21376;-79
2022/06/25 00:42:32;;;;;;;4.97;2.50;;;;;;;15.58;69.33;100002.00;1424201;91;21541;-79
2022/06/25 00:44:58;;;;;;;8.57;3.60;;;;;;;15.58;69.55;100002.52;1396426;92;22336;-79
2022/06/25 00:47:24;;;;;;;9.47;3.07;;;;;;;15.59;69.11;99998.82;1395830;94;21534;-79
2022/06/25 00:49:51;;;;;;;5.53;2.47;;;;;;;15.59;68.74;99993.48;1389438;93;21362;-79
2022/06/25 00:52:19;;;;;;;6.63;2.73;;;;;;;15.59;69.18;100001.49;1398348;93;21434;-79
2022/06/25 00:54:53;;;;;;;11.37;2.53;;;;;;;15.60;69.00;99998.34;1388850;94;21457;-79
2022/06/25 00:57:27;;;;;;;7.03;2.80;;;;;;;15.59;69.85;99997.48;1393653;92;21390;-79
2022/06/25 01:00:07;;;;;;;3.70;2.50;;;;;;;15.60;69.95;99996.50;1391376;93;22403;-79
2022/06/25 01:02:34;;;;;;;4.05;2.42;;;;;;;15.64;69.81;99999.08;1393296;94;22432;-79
2022/06/25 01:05:10;;;;;;;7.57;2.93;;;;;;;15.69;69.89;100001.22;1397465;93;21457;-79
2022/06/25 01:07:38;;;;;;;6.83;2.70;;;;;;;15.69;69.78;100006.05;1397575;93;21317;-79
2022/06/25 01:10:07;;;;;;;6.13;2.83;;;;;;;15.71;70.00;100000.02;1391133;93;21368;-79
2022/06/25 01:12:35;;;;;;;3.93;2.70;;;;;;;15.69;69.69;100000.70;1401369;93;21556;-79
2022/06/25 01:15:09;;;;;;;7.20;2.23;;;;;;;15.68;69.95;99996.88;1399252;93;21567;-79
2022/06/25 01:17:50;;;;;;;8.53;3.00;;;;;;;15.63;70.19;99998.78;1396062;93;21479;-79
2022/06/25 01:20:20;;;;;;;15.00;3.60;;;;;;;15.60;70.41;99989.83;1397092;92;21426;-79
2022/06/25 01:22:47;;;;;;;7.75;3.02;;;;;;;15.58;70.86;99983.84;1411969;93;21495;-79
2022/06/25 01:25:15;;;;;;;4.40;2.57;;;;;;;15.57;70.67;99984.88;1400646;93;21597;-79
2022/06/25 01:27:41;;;;;;;5.80;3.70;;;;;;;15.55;70.88;99982.90;1393720;93;21419;-79
2022/06/25 01:30:10;;;;;;;7.43;2.73;;;;;;;15.53;71.34;99980.92;1395414;93;21442;-79
2022/06/25 01:32:36;;;;;;;7.63;2.90;;;;;;;15.51;70.78;99980.30;1395859;93;21619;-79
2022/06/25 01:35:04;;;;;;;3.90;2.87;;;;;;;15.48;71.27;99984.69;1399451;93;22566;-79
2022/06/25 01:37:30;;;;;;;4.40;3.20;;;;;;;15.44;71.43;99978.06;1396802;93;21457;-79
2022/06/25 01:39:57;;;;;;;8.87;3.27;;;;;;;15.39;71.72;99979.14;1391703;93;21449;-79
2022/06/25 01:45:15;;;;;;;7.20;3.57;;;;;;;15.35;71.96;99978.70;1390092;93;21398;-79
2022/06/25 01:47:41;;;;;;;6.90;3.30;;;;;;;15.35;71.82;99984.03;1396601;92;22428;-79
2022/06/25 01:50:09;;;;;;;6.00;3.03;;;;;;;15.31;72.56;99983.59;1396909;93;21463;-79
2022/06/25 01:52:35;;;;;;;6.23;3.70;;;;;;;15.29;72.11;99986.95;1391667;93;21389;-79
2022/06/25 01:55:03;;;;;;;7.23;3.20;;;;;;;15.27;72.74;99978.30;1399963;93;21516;-79
2022/06/25 01:57:29;;;;;;;7.70;3.43;;;;;;;15.22;72.89;99979.40;1398944;93;22345;-79
2022/06/25 01:59:55;;;;;;;5.33;3.00;;;;;;;15.21;72.51;99984.39;1396078;94;21427;-79
2022/06/25 02:02:21;;;;;;;8.73;3.67;;;;;;;15.21;72.93;99983.06;1391550;93;22278;-79
2022/06/25 02:04:47;;;;;;;8.60;3.23;;;;;;;15.18;73.61;99983.44;1398374;94;21419;-80
2022/06/25 02:07:13;;;;;;;3.80;2.63;;;;;;;15.17;74.12;99976.98;1403112;93;21413;-79
2022/06/25 02:09:40;;;;;;;6.23;3.00;;;;;;;15.17;73.71;99984.46;1394322;93;21354;-79
2022/06/25 02:12:07;;;;;;;5.07;2.60;;;;;;;15.17;73.08;99984.46;1400858;93;21434;-79
2022/06/25 02:14:34;;;;;;;8.13;3.60;;;;;;;15.15;73.92;99983.81;1392624;93;21427;-79
2022/06/25 02:17:00;;;;;;;6.23;3.77;;;;;;;15.15;73.00;99991.81;1399106;93;21397;-80
2022/06/25 02:19:26;;;;;;;6.13;3.57;;;;;;;15.16;72.62;99996.12;1397941;92;21477;-87
2022/06/25 02:21:52;;;;;;;8.43;2.83;;;;;;;15.18;73.16;99994.10;1399511;93;21375;-87
2022/06/25 02:24:18;;;;;;;12.93;3.03;;;;;;;15.15;73.48;99993.66;1370803;95;22385;-87
2022/06/25 02:26:44;;;;;;;6.33;2.90;;;;;;;15.12;73.46;99999.67;1398426;93;21375;-87
2022/06/25 02:29:11;;;;;;;5.67;3.13;;;;;;;15.12;73.86;100000.19;1394964;93;21376;-87
2022/06/25 02:31:37;;;;;;;8.87;3.30;;;;;;;15.12;73.94;100000.19;1369161;95;22265;-87
2022/06/25 02:34:02;;;;;;;7.70;3.30;;;;;;;15.10;73.57;99994.20;1378835;94;21512;-87
2022/06/25 02:36:29;;;;;;;6.70;2.90;;;;;;;15.04;73.37;99999.78;1397365;93;21339;-88
2022/06/25 02:38:55;;;;;;;4.90;3.43;;;;;;;14.96;73.98;99997.73;1372339;95;21292;-91
2022/06/25 02:41:21;;;;;;;12.60;3.90;;;;;;;14.89;74.12;99999.81;1398835;94;21353;-87
2022/06/25 02:43:47;;;;;;;6.03;3.23;;;;;;;14.87;74.14;100007.66;1375888;95;21461;-88
2022/06/25 02:46:13;;;;;;;7.30;3.23;;;;;;;14.87;74.33;100004.52;1400566;94;22403;-88
2022/06/25 02:48:39;;;;;;;7.37;3.90;;;;;;;14.91;73.43;100002.81;1371603;95;21431;-88
2022/06/25 02:51:05;;;;;;;4.73;3.47;;;;;;;14.89;73.54;100006.47;1405981;93;21539;-87
2022/06/25 02:53:31;;;;;;;9.23;3.67;;;;;;;14.89;74.11;100014.46;1375397;95;21363;-88
2022/06/25 02:58:54;;;;;;;9.07;4.53;;;;;;;14.93;74.52;100018.91;1374303;95;21593;-87
2022/06/25 03:01:22;;;;;;;5.53;3.07;;;;;;;14.97;74.66;100027.37;1371360;95;22199;-88
2022/06/25 03:03:49;;;;;;;7.63;2.57;;;;;;;15.01;74.22;100024.14;1402114;93;21523;-88
2022/06/25 03:06:16;;;;;;;10.73;2.83;;;;;;;15.09;74.24;100029.88;1398800;92;21596;-88
2022/06/25 03:08:42;;;;;;;14.40;4.10;;;;;;;15.11;74.89;100034.52;1365958;95;21290;-88
2022/06/25 03:11:08;;;;;;;8.40;3.70;;;;;;;15.15;74.30;100030.46;1369494;95;21430;-88
2022/06/25 03:13:36;;;;;;;12.77;3.73;;;;;;;15.19;74.03;100026.42;1373995;95;21489;-88
2022/06/25 03:16:06;;;;;;;7.20;2.50;;;;;;;15.23;74.26;100030.87;1366960;95;21393;-88
2022/06/25 03:18:34;;;;;;;7.07;3.17;;;;;;;15.27;74.12;100024.95;1399122;93;22434;-88
2022/06/25 03:21:02;;;;;;;9.60;3.73;;;;;;;15.34;74.16;100020.54;1371297;95;21297;-88
2022/06/25 03:23:28;;;;;;;3.90;2.67;;;;;;;15.43;74.62;100017.76;1372472;95;21461;-88
2022/06/25 03:25:55;;;;;;;7.13;3.30;;;;;;;15.44;74.69;100012.73;1355500;96;21548;-88
2022/06/25 03:28:21;;;;;;;10.17;3.40;;;;;;;15.48;74.42;100017.52;1397226;92;22307;-87
2022/06/25 03:30:47;;;;;;;8.13;3.20;;;;;;;15.50;74.11;100017.30;1395301;93;21457;-88
2022/06/25 03:33:14;;;;;;;11.87;4.50;;;;;;;15.53;73.83;100022.26;1384538;94;21442;-88
2022/06/25 03:35:41;;;;;;;7.80;4.00;;;;;;;15.60;74.53;100025.83;1373672;95;21429;-88
2022/06/25 03:38:07;;;;;;;5.37;3.40;;;;;;;15.68;73.92;100033.75;1389412;94;21457;-88
2022/06/25 03:40:33;;;;;;;5.67;3.30;;;;;;;15.73;75.05;100036.64;1375571;95;21579;-88
2022/06/25 03:42:59;;;;;;;24.77;4.43;;;;;;;15.75;74.63;100037.80;1372119;95;21515;-88
2022/06/25 03:45:26;;;;;;;6.63;3.67;;;;;;;15.72;74.17;100047.02;1376610;95;21387;-88
2022/06/25 03:47:54;;;;;;;5.43;3.83;;;;;;;15.77;73.57;100046.45;1369871;95;21386;-88
2022/06/25 03:50:21;;;;;;;6.87;3.60;;;;;;;15.81;74.43;100053.56;1393417;93;21353;-88
2022/06/25 03:52:50;;;;;;;8.90;3.33;;;;;;;15.83;73.49;100055.54;1395417;93;21413;-88
2022/06/25 03:55:18;;;;;;;5.47;4.43;;;;;;;15.86;73.46;100057.31;1367970;95;21416;-88
2022/06/25 03:57:44;;;;;;;14.57;3.80;;;;;;;15.95;73.40;100067.34;1385945;93;21413;-88
2022/06/25 04:00:12;;;;;;;8.30;4.17;;;;;;;16.04;73.48;100067.53;1375945;95;21386;-89
2022/06/25 04:02:38;;;;;;;4.70;3.13;;;;;;;16.11;74.21;100070.25;1389991;93;21324;-87
2022/06/25 04:05:05;;;;;;;5.77;3.87;;;;;;;16.18;73.84;100067.95;1395975;94;22351;-88
2022/06/25 04:07:31;;;;;;;5.37;3.40;;;;;;;16.27;73.79;100062.48;1399561;94;21450;-88
2022/06/25 04:09:57;;;;;;;5.87;3.70;;;;;;;16.36;73.68;100068.81;1402072;93;21501;-88
2022/06/25 04:12:23;;;;;;;5.50;3.77;;;;;;;16.44;74.04;100070.52;1396287;93;21383;-88
2022/06/25 04:14:50;;;;;;;10.07;4.40;;;;;;;16.51;73.09;100070.05;1396099;93;22381;-88
2022/06/25 04:17:16;;;;;;;6.50;4.40;;;;;;;16.59;72.85;100063.73;1369573;95;21513;-88
2022/06/25 04:19:42;;;;;;;11.10;4.53;;;;;;;16.63;72.67;100073.84;1368846;95;21349;-88
2022/06/25 04:22:10;;;;;;;22.00;4.43;;;;;;;16.84;72.93;100078.31;1369103;95;21423;-88
2022/06/25 04:24:40;;;;;;;10.07;3.60;;;;;;;16.84;72.93;100078.31;1389746;93;21492;-88
2022/06/25 04:27:07;;;;;;;35.83;5.10;;;;;;;16.89;73.18;100075.06;1400964;93;22394;-88
2022/06/25 04:29:33;;;;;;;12.27;4.60;;;;;;;16.94;72.76;100068.59;1390711;93;21493;-88
2022/06/25 04:31:59;;;;;;;13.03;5.30;;;;;;;17.05;72.61;100067.21;1377621;95;21405;-88
2022/06/25 04:34:25;;;;;;;8.23;4.03;;;;;;;17.14;72.57;100064.67;1376054;95;21357;-88
2022/06/25 04:36:51;;;;;;;6.13;4.20;;;;;;;17.23;72.44;100067.48;1373614;95;21408;-88
2022/06/25 04:39:18;;;;;;;9.27;4.83;;;;;;;17.35;72.23;100071.77;1375038;95;22334;-88
2022/06/25 04:41:47;;;;;;;7.53;4.00;;;;;;;17.46;72.49;100071.16;1372162;95;21552;-88
2022/06/25 04:44:15;;;;;;;10.53;4.80;;;;;;;17.59;72.49;100073.89;1369523;95;21534;-89
2022/06/25 04:46:43;;;;;;;12.03;4.30;;;;;;;17.73;71.62;100073.94;1353201;95;21400;-88
2022/06/25 04:49:09;;;;;;;10.10;4.47;;;;;;;17.88;71.09;100070.58;1366834;95;22406;-88
2022/06/25 04:51:35;;;;;;;9.80;4.60;;;;;;;18.01;70.79;100074.63;1376866;95;21920;-88
2022/06/25 04:54:03;;;;;;;8.30;4.77;;;;;;;18.12;69.99;100073.69;1355328;94;21549;-88
2022/06/25 04:56:30;;;;;;;9.70;4.83;;;;;;;18.23;69.65;100075.23;1373242;95;21518;-88
2022/06/25 04:58:58;;;;;;;9.20;4.30;;;;;;;18.39;69.33;100073.19;1372682;95;22533;-88
2022/06/25 05:01:24;;;;;;;9.23;3.83;;;;;;;18.53;69.02;100073.48;1365408;96;22367;-88
2022/06/25 05:03:50;;;;;;;9.60;4.20;;;;;;;18.65;68.36;100067.78;1374681;95;21474;-88
2022/06/25 05:06:16;;;;;;;7.47;3.87;;;;;;;18.64;66.25;100066.64;1371580;95;21298;-88
2022/06/25 05:08:42;;;;;;;8.27;4.07;;;;;;;18.70;66.04;100069.33;1378781;95;21588;-87
2022/06/25 05:11:09;;;;;;;8.60;4.30;;;;;;;18.79;66.10;100068.63;1372349;95;21423;-88
2022/06/25 05:13:35;;;;;;;9.03;3.63;;;;;;;18.89;66.10;100074.34;1374797;95;21395;-88
2022/06/25 05:16:01;;;;;;;13.23;5.40;;;;;;;19.01;65.71;100079.06;1375241;95;21409;-88
2022/06/25 05:18:27;;;;;;;8.30;4.17;;;;;;;19.07;65.26;100076.88;1396395;93;22569;-88
2022/06/25 05:20:53;;;;;;;10.00;4.53;;;;;;;19.10;64.71;100081.32;1367864;95;22458;-88
2022/06/25 05:23:20;;;;;;;4.50;3.50;;;;;;;19.17;64.40;100086.65;1373655;95;21415;-88
2022/06/25 05:25:46;;;;;;;6.97;3.70;;;;;;;19.23;63.79;100081.77;1369978;95;22516;-88
2022/06/25 05:28:13;;;;;;;6.30;3.20;;;;;;;19.25;63.28;100075.69;1390075;93;21508;-88
2022/06/25 05:30:40;;;;;;;9.83;3.70;;;;;;;19.30;63.18;100077.19;1373330;95;22310;-88
2022/06/25 05:33:06;;;;;;;11.13;4.50;;;;;;;19.37;63.24;100071.81;1369727;95;21400;-88
2022/06/25 05:35:34;;;;;;;11.17;4.20;;;;;;;19.44;63.04;100073.11;1375344;95;21328;-88
2022/06/25 05:38:00;;;;;;;9.53;3.80;;;;;;;19.51;62.90;100073.39;1361282;96;21377;-87
2022/06/25 05:40:26;;;;;;;4.40;3.20;;;;;;;19.63;62.73;100076.73;1391059;93;21509;-88
2022/06/25 05:42:52;;;;;;;6.77;3.97;;;;;;;19.75;62.43;100077.72;1372912;95;22368;-88
2022/06/25 05:45:18;;;;;;;13.30;3.63;;;;;;;19.84;61.19;100077.23;1377091;95;21445;-88
2022/06/25 05:47:44;;;;;;;9.33;3.20;;;;;;;19.96;60.69;100079.23;1375485;95;21489;-88
2022/06/25 05:50:10;;;;;;;6.92;3.65;;;;;;;20.10;60.74;100090.18;1395616;93;23252;-88
2022/06/25 05:52:37;;;;;;;6.70;4.00;;;;;;;20.22;60.53;100084.39;1355300;95;21408;-88
2022/06/25 05:55:04;;;;;;;7.17;3.70;;;;;;;20.33;60.08;100087.42;1379850;95;21312;-88
2022/06/25 05:57:30;;;;;;;7.92;4.10;;;;;;;20.42;59.81;100088.78;1391947;93;21419;-88
2022/06/25 05:59:57;;;;;;;13.83;4.08;;;;;;;20.45;59.24;100085.66;1377036;95;22341;-88
2022/06/25 06:02:23;;;;;;;8.78;3.90;;;;;;;20.54;59.23;100087.04;1398779;93;21545;-87
2022/06/25 06:04:49;;;;;;;5.92;3.00;;;;;;;20.66;59.51;100085.30;1374271;95;21451;-88
2022/06/25 06:07:15;;;;;;;12.18;4.12;;;;;;;20.76;58.98;100086.11;1373375;95;21532;-88
2022/06/25 06:09:41;;;;;;;11.88;3.95;;;;;;;20.90;58.81;100079.55;1374320;95;22966;-87
2022/06/25 06:12:08;;;;;;;7.62;3.85;;;;;;;21.09;58.66;100088.95;1395318;93;22211;-88
2022/06/25 06:14:34;;;;;;;7.00;4.03;;;;;;;21.25;58.15;100083.50;1371341;95;21520;-87
2022/06/25 06:17:00;;;;;;;12.00;4.37;;;;;;;21.40;57.52;100075.88;1372147;95;22311;-88
2022/06/25 06:19:26;;;;;;;8.98;4.03;;;;;;;21.56;57.14;100075.25;1369372;95;21537;-88
2022/06/25 06:21:52;;;;;;;8.65;4.60;;;;;;;21.72;56.77;100079.19;1370767;95;21614;-88
2022/06/25 06:24:18;;;;;;;12.07;4.00;;;;;;;21.89;56.12;100077.98;1393075;93;21448;-88
2022/06/25 06:26:44;;;;;;;5.72;3.85;;;;;;;22.02;55.95;100072.40;1369817;95;21533;-87
2022/06/25 06:29:11;;;;;;;13.20;3.87;;;;;;;22.17;55.20;100074.67;1398851;93;21671;-88
2022/06/25 06:31:37;;;;;;;6.62;4.00;;;;;;;22.30;54.94;100081.73;1373813;95;21578;-88
2022/06/25 06:34:03;;;;;;;7.22;3.70;;;;;;;22.44;54.09;100080.45;1397067;94;21427;-87
2022/06/25 06:36:29;;;;;;;4.17;3.35;;;;;;;22.55;53.22;100081.49;1372805;95;22289;-88
2022/06/25 06:38:55;;;;;;;8.35;3.25;;;;;;;22.71;53.00;100080.80;1395241;93;23334;-87
2022/06/25 06:41:21;;;;;;;14.07;3.98;;;;;;;22.87;52.07;100086.01;1368331;95;21439;-87
2022/06/25 06:43:47;;;;;;;6.60;3.52;;;;;;;23.01;51.82;100096.56;1373635;95;21386;-87
2022/06/25 06:46:15;;;;;;;7.47;3.25;;;;;;;23.16;51.57;100082.02;1371552;95;21488;-87
2022/06/25 06:48:41;;;;;;;8.13;3.52;;;;;;;23.26;50.01;100085.48;1374583;95;22458;-87
2022/06/25 06:51:07;;;;;;;8.23;3.40;;;;;;;23.39;50.23;100087.38;1376883;95;21513;-87
2022/06/25 06:53:34;;;;;;;5.17;3.58;;;;;;;23.54;49.97;100094.14;1400320;93;21390;-87
2022/06/25 06:56:00;;;;;;;8.55;3.55;;;;;;;23.65;49.15;100090.56;1400297;94;21403;-88
2022/06/25 06:58:29;;;;;;;8.18;3.35;;;;;;;23.67;48.17;100086.25;1374435;95;22369;-87
2022/06/25 07:00:57;;;;;;;8.18;2.77;;;;;;;23.79;48.27;100084.34;1375017;93;22269;-88
2022/06/25 07:03:23;;;;;;;5.20;3.83;;;;;;;23.87;45.53;100088.00;1369260;94;22860;-87
2022/06/25 07:05:49;;;;;;;7.37;3.10;;;;;;;24.03;47.20;100086.39;1371619;95;21474;-87
2022/06/25 07:08:16;;;;;;;15.08;4.03;;;;;;;24.22;47.43;100087.77;1372923;95;22752;-88
2022/06/25 07:10:42;;;;;;;13.58;3.40;;;;;;;24.43;47.18;100090.86;1395347;93;21464;-87
2022/06/25 07:13:08;;;;;;;10.90;3.80;;;;;;;24.62;46.92;100094.09;1395906;94;22841;-88
2022/06/25 07:15:34;;;;;;;6.03;3.85;;;;;;;24.79;46.58;100091.37;1371294;95;21438;-89
2022/06/25 07:18:01;;;;;;;8.48;3.62;;;;;;;24.91;45.99;100094.77;1377786;95;22413;-88
2022/06/25 07:20:29;;;;;;;14.35;3.83;;;;;;;25.02;45.27;100089.78;1397126;93;22456;-87
2022/06/25 07:22:55;;;;;;;6.33;3.50;;;;;;;25.15;45.19;100097.57;1401089;94;21479;-88
2022/06/25 07:25:21;;;;;;;10.63;3.60;;;;;;;25.19;44.05;100095.98;1374544;95;21586;-87
2022/06/25 07:27:48;;;;;;;6.67;3.37;;;;;;;25.28;44.44;100090.12;1387579;93;21383;-87
2022/06/25 07:30:15;;;;;;;11.12;3.52;;;;;;;25.39;44.00;100087.83;1397856;93;22287;-87
2022/06/25 07:32:41;;;;;;;8.03;4.37;;;;;;;25.41;43.04;100091.11;1395497;94;21516;-88
2022/06/25 07:35:08;;;;;;;9.90;3.22;;;;;;;25.28;42.75;100090.94;1375225;95;21446;-87
2022/06/25 07:37:35;;;;;;;10.28;3.95;;;;;;;25.21;41.96;100087.08;1396384;93;21634;-87
2022/06/25 07:40:01;;;;;;;16.60;4.35;;;;;;;25.38;42.27;100090.26;1374965;95;21560;-87
2022/06/25 07:42:30;;;;;;;10.82;3.92;;;;;;;25.53;42.57;100093.12;1389434;93;21517;-87
2022/06/25 07:44:58;;;;;;;6.97;3.40;;;;;;;25.72;42.14;100088.70;1392618;93;21494;-88
2022/06/25 07:47:24;;;;;;;13.48;3.98;;;;;;;25.89;41.87;100085.38;1400614;93;21338;-87
2022/06/25 07:52:36;;;;;;;7.45;3.80;;;;;;;26.27;40.93;100083.00;1373538;95;22326;-87
2022/06/25 07:55:03;;;;;;;13.45;3.85;;;;;;;26.50;40.93;100076.95;1375191;95;21503;-87
2022/06/25 07:57:30;;;;;;;9.03;3.52;;;;;;;26.62;39.78;100079.47;1399136;93;22469;-88
2022/06/25 07:59:56;;;;;;;8.43;3.72;;;;;;;26.75;39.70;100083.05;1395546;94;21405;-88
2022/06/25 08:02:22;;;;;;;12.13;3.25;;;;;;;26.88;39.44;100082.59;1368516;95;22310;-88
2022/06/25 08:04:48;;;;;;;8.43;2.80;;;;;;;27.13;39.27;100090.05;1399797;93;21435;-88
2022/06/25 08:07:14;;;;;;;8.78;2.70;;;;;;;27.40;38.74;100079.02;1375143;95;21445;-88
2022/06/25 08:09:40;;;;;;;9.53;2.67;;;;;;;27.60;37.38;100085.60;1370875;95;21395;-87
2022/06/25 08:12:07;;;;;;;15.65;5.33;;;;;;;27.59;35.93;100086.66;1399818;93;21435;-86
2022/06/25 08:14:33;;;;;;;10.85;5.35;;;;;;;27.73;37.64;100087.78;1396999;94;21553;-86
2022/06/25 08:16:59;;;;;;;7.92;3.08;;;;;;;27.80;38.04;100082.94;1370683;95;21437;-87
2022/06/25 08:19:25;;;;;;;6.22;2.90;;;;;;;27.85;37.47;100084.31;1374812;95;22397;-87
2022/06/25 08:21:51;;;;;;;12.65;2.72;;;;;;;27.87;37.39;100078.04;1405379;93;21443;-86
2022/06/25 08:24:17;;;;;;;15.20;4.62;;;;;;;27.85;36.53;100070.72;1371445;95;21505;-88
2022/06/25 08:26:43;;;;;;;17.37;9.95;;;;;;;27.96;37.68;100065.27;1399472;93;22299;-87
2022/06/25 08:29:09;;;;;;;7.92;3.83;;;;;;;28.13;37.23;100068.53;1374430;95;21386;-87
2022/06/25 08:31:35;;;;;;;5.30;2.83;;;;;;;28.24;36.36;100063.36;1375470;95;21726;-86
2022/06/25 08:34:01;;;;;;;13.83;8.38;;;;;;;28.30;36.31;100066.34;1350489;96;21565;-87
2022/06/25 08:36:27;;;;;;;14.40;2.87;;;;;;;28.40;36.60;100063.33;1374676;95;22436;-87
2022/06/25 08:38:53;;;;;;;6.67;2.47;;;;;;;28.32;36.34;100068.80;1398783;93;21464;-87
2022/06/25 08:41:20;;;;;;;15.63;2.72;;;;;;;28.42;36.55;100067.98;1392252;93;22338;-88
2022/06/25 08:43:46;;;;;;;16.30;2.67;;;;;;;28.48;36.42;100065.52;1372369;95;21393;-88
2022/06/25 08:46:14;;;;;;;2.67;1.95;;;;;;;28.50;36.45;100070.97;1373224;95;21519;-87
2022/06/25 08:48:42;;;;;;;6.58;2.40;;;;;;;28.58;36.93;100064.70;1403805;93;21456;-88
2022/06/25 08:51:09;;;;;;;8.48;2.17;;;;;;;28.59;36.91;100063.05;1393661;93;21324;-88
2022/06/25 08:53:36;;;;;;;6.42;2.10;;;;;;;28.62;36.25;100058.97;1391001;94;21442;-87
2022/06/25 08:56:03;;;;;;;6.55;2.40;;;;;;;28.53;36.07;100059.52;1397130;93;21421;-88
2022/06/25 08:58:29;;;;;;;20.72;2.37;;;;;;;28.54;36.12;100057.61;1398622;94;21516;-88
2022/06/25 09:00:55;;;;;;;9.88;2.90;;;;;;;28.54;36.48;100056.25;1399923;93;23451;-87
2022/06/25 09:03:21;;;;;;;5.28;2.62;;;;;;;28.57;36.72;100059.81;1372925;95;21417;-88
2022/06/25 09:05:47;;;;;;;10.50;2.40;;;;;;;28.72;36.37;100055.68;1402218;93;21405;-87
2022/06/25 09:08:15;;;;;;;98.72;9.03;;;;;;;29.03;35.74;100056.94;1367450;95;22516;-88
2022/06/25 09:10:45;;;;;;;6.45;1.90;;;;;;;29.24;34.80;100063.94;1390474;93;22603;-88
2022/06/25 09:13:13;;;;;;;4.87;1.85;;;;;;;29.60;35.03;100051.44;1394635;93;21361;-87
2022/06/25 09:15:45;;;;;;;4.00;1.80;;;;;;;29.88;34.21;100059.45;1356677;95;21386;-88
2022/06/25 09:18:15;;;;;;;3.67;1.80;;;;;;;30.00;33.83;100057.72;1393585;93;21427;-88
2022/06/25 09:21:03;;;;;;;7.42;1.90;;;;;;;29.98;33.98;100054.48;1392041;94;21427;-88
2022/06/25 09:23:33;;;;;;;3.05;1.62;;;;;;;29.97;33.47;100058.30;1398697;94;21531;-87
2022/06/25 09:26:12;;;;;;;1.80;1.67;;;;;;;30.09;33.00;100061.45;1393230;93;22469;-88
2022/06/25 09:28:42;;;;;;;4.67;1.42;;;;;;;30.12;31.44;100054.09;1398084;93;22842;-87
2022/06/25 09:31:08;;;;;;;2.80;1.40;;;;;;;30.29;32.37;100062.41;1399412;94;21420;-87
2022/06/25 09:33:39;;;;;;;8.93;2.25;;;;;;;30.26;29.15;100061.06;1393948;93;22344;-88
2022/06/25 09:36:09;;;;;;;3.70;2.22;;;;;;;30.30;30.91;100062.70;1398340;93;21390;-89
2022/06/25 09:38:49;;;;;;;4.03;1.90;;;;;;;30.34;31.90;100059.64;1393260;93;22270;-88
2022/06/25 09:41:16;;;;;;;2.87;1.87;;;;;;;29.91;29.41;100056.71;1396653;93;21457;-88
2022/06/25 09:43:47;;;;;;;3.08;1.22;;;;;;;29.99;31.56;100060.20;1370306;95;22340;-91
2022/06/25 09:46:09;;;;;;;50.45;3.77;;;;;;;30.20;29.92;100053.19;1352859;95;22711;-88
2022/06/25 09:48:36;;;;;;;4.85;1.15;;;;;;;30.28;29.01;100053.41;1370870;95;21578;-88
2022/06/25 09:51:23;;;;;;;1.90;1.40;;;;;;;30.34;28.73;100052.26;1379341;95;21578;-89
2022/06/25 09:54:01;;;;;;;6.40;1.60;;;;;;;30.42;29.09;100056.28;1394409;93;22341;-90
2022/06/25 09:56:33;;;;;;;3.45;1.47;;;;;;;30.45;29.12;100055.70;1392006;93;21398;-88
2022/06/25 09:59:01;;;;;;;6.62;1.22;;;;;;;30.28;28.70;100047.14;1410211;93;21575;-88
2022/06/25 10:01:31;;;;;;;4.37;1.40;;;;;;;30.32;29.21;100050.91;1370052;95;22427;-87
2022/06/25 10:04:03;;;;;;;15.18;1.60;;;;;;;30.42;29.43;100054.11;1394927;93;21436;-88
2022/06/25 10:06:35;;;;;;;4.78;1.25;;;;;;;30.49;29.23;100051.28;1396679;93;21434;-88
2022/06/25 10:09:04;;;;;;;5.33;1.65;;;;;;;30.66;29.38;100049.46;1396672;94;21509;-87
2022/06/25 10:11:32;;;;;;;2.62;1.20;;;;;;;30.95;28.60;100050.78;1400132;94;21353;-88
2022/06/25 10:13:58;;;;;;;5.65;1.55;;;;;;;31.11;25.65;100051.42;1399490;93;21464;-88
2022/06/25 10:16:28;;;;;;;2.77;1.57;;;;;;;31.19;27.94;100049.95;1394697;94;21346;-87
2022/06/25 10:18:55;;;;;;;1.65;1.55;;;;;;;31.23;27.71;100053.72;1394292;93;21457;-85
2022/06/25 10:21:24;;;;;;;5.58;1.50;;;;;;;31.06;26.26;100045.20;1396629;94;21501;-81
2022/06/25 10:23:57;;;;;;;3.25;1.30;;;;;;;31.08;27.19;100047.09;1393459;93;21441;-81
2022/06/25 10:26:24;;;;;;;2.70;1.30;;;;;;;31.09;27.89;100046.79;1389671;93;21375;-81
2022/06/25 10:28:51;;;;;;;7.60;1.70;;;;;;;31.19;27.62;100045.30;1398172;94;21435;-81
2022/06/25 10:31:19;;;;;;;4.30;1.77;;;;;;;31.35;26.99;100045.08;1369656;94;21393;-81
2022/06/25 10:34:03;;;;;;;3.12;1.70;;;;;;;31.45;26.60;100040.31;1394764;93;21523;-81
2022/06/25 10:36:53;;;;;;;5.20;1.45;;;;;;;31.49;26.88;100044.63;1397415;94;21361;-81
2022/06/25 10:39:30;;;;;;;4.58;1.45;;;;;;;31.55;27.11;100038.52;1393967;93;21450;-81
2022/06/25 10:45:19;;;;;;;10.35;2.50;;;;;;;32.00;26.38;100026.06;1397919;93;21493;-82
2022/06/25 10:47:52;;;;;;;4.20;1.30;;;;;;;32.48;26.14;100024.38;1396294;93;22227;-81
2022/06/25 10:50:31;;;;;;;1.77;1.27;;;;;;;32.64;25.28;100018.05;1393142;93;21642;-82
2022/06/25 10:53:12;;;;;;;9.45;2.20;;;;;;;32.52;23.99;100017.75;1401063;93;21383;-82
2022/06/25 10:55:53;;;;;;;2.92;1.22;;;;;;;32.39;24.44;100022.05;1391777;93;21353;-82
2022/06/25 10:58:25;;;;;;;6.15;1.52;;;;;;;32.38;24.39;100015.53;1400531;93;22426;-82
2022/06/25 11:01:01;;;;;;;6.85;1.47;;;;;;;32.22;24.07;100021.84;1366170;95;21393;-82
2022/06/25 11:03:39;;;;;;;41.53;3.95;;;;;;;32.21;24.60;100014.19;1401253;93;21383;-82
2022/06/25 11:06:26;;;;;;;3.55;1.57;;;;;;;32.13;23.30;100006.09;1400047;93;22689;-82
2022/06/25 11:08:53;;;;;;;6.58;3.00;;;;;;;32.17;24.16;100013.17;1400668;94;22337;-82
2022/06/25 11:11:29;;;;;;;6.83;2.58;;;;;;;32.19;24.06;100006.82;1369221;95;22311;-82
2022/06/25 11:14:00;;;;;;;5.50;1.60;;;;;;;32.21;24.02;100009.27;1398534;93;21442;-82
2022/06/25 11:16:26;;;;;;;6.33;1.77;;;;;;;32.25;23.45;100011.64;1396208;94;22499;-82
2022/06/25 11:18:56;;;;;;;9.08;2.77;;;;;;;32.21;23.08;99990.11;1394614;94;21870;-82
2022/06/25 11:21:37;;;;;;;9.35;1.87;;;;;;;32.32;22.47;100004.67;1370382;95;21394;-81
2022/06/25 11:24:25;;;;;;;7.60;1.35;;;;;;;32.41;22.80;100007.52;1372152;94;21623;-81
2022/06/25 11:29:51;;;;;;;1.50;1.20;;;;;;;32.67;23.14;99995.52;1397850;93;22670;-81
2022/06/25 11:32:25;;;;;;;1.95;1.22;;;;;;;32.97;22.51;99994.61;1399632;93;21505;-81
2022/06/25 11:34:58;;;;;;;88.35;7.00;;;;;;;33.16;22.14;99996.68;1395922;93;21456;-81
2022/06/25 11:37:25;;;;;;;10.18;1.75;;;;;;;33.45;22.49;99994.09;1390876;94;21384;-81
2022/06/25 11:39:52;;;;;;;10.53;1.60;;;;;;;33.58;22.53;99987.78;1393697;93;22396;-81
2022/06/25 11:42:19;;;;;;;3.65;1.40;;;;;;;33.67;22.50;99983.16;1398848;93;21347;-81